sensor_id;sensor_type;location;lat;lon;timestamp;temperature;humidity
19522;DHT22;9905;52.126;5.596;2022-12-08T00:01:16;3.80;99.90
19522;DHT22;9905;52.126;5.596;2022-12-08T00:03:43;3.80;99.90
19522;DHT22;9905;52.126;5.596;2022-12-08T00:06:18;3.80;99.90
19522;DHT22;9905;52.126;5.596;2022-12-08T00:09:13;3.90;99.90
19522;DHT22;9905;52.126;5.596;2022-12-08T00:11:59;3.80;99.90
19522;DHT22;9905;52.126;5.596;2022-12-08T00:14:28;3.90;99.90
19522;DHT22;9905;52.126;5.596;2022-12-08T00:16:56;3.90;99.90
19522;DHT22;9905;52.126;5.596;2022-12-08T00:19:24;4.00;99.90
19522;DHT22;9905;52.126;5.596;2022-12-08T00:21:52;4.00;99.90
19522;DHT22;9905;52.126;5.596;2022-12-08T00:24:23;3.90;99.90
19522;DHT22;9905;52.126;5.596;2022-12-08T00:26:50;4.00;99.90
19522;DHT22;9905;52.126;5.596;2022-12-08T00:29:17;4.00;99.90
19522;DHT22;9905;52.126;5.596;2022-12-08T00:31:44;4.00;99.90
19522;DHT22;9905;52.126;5.596;2022-12-08T00:34:11;4.00;99.90
19522;DHT22;9905;52.126;5.596;2022-12-08T00:36:38;4.00;99.90
19522;DHT22;9905;52.126;5.596;2022-12-08T00:39:05;4.00;99.90
19522;DHT22;9905;52.126;5.596;2022-12-08T00:41:33;4.10;99.90
19522;DHT22;9905;52.126;5.596;2022-12-08T00:44:18;4.10;99.90
19522;DHT22;9905;52.126;5.596;2022-12-08T00:46:45;4.10;99.90
19522;DHT22;9905;52.126;5.596;2022-12-08T00:49:12;4.20;99.90
19522;DHT22;9905;52.126;5.596;2022-12-08T00:51:39;4.20;99.90
19522;DHT22;9905;52.126;5.596;2022-12-08T00:54:07;4.20;99.90
19522;DHT22;9905;52.126;5.596;2022-12-08T00:56:35;4.20;99.90
19522;DHT22;9905;52.126;5.596;2022-12-08T00:59:02;4.20;99.90
19522;DHT22;9905;52.126;5.596;2022-12-08T01:01:29;4.20;99.90
19522;DHT22;9905;52.126;5.596;2022-12-08T01:03:56;4.20;99.90
19522;DHT22;9905;52.126;5.596;2022-12-08T01:06:23;4.20;99.90
19522;DHT22;9905;52.126;5.596;2022-12-08T01:08:49;4.30;99.90
19522;DHT22;9905;52.126;5.596;2022-12-08T01:11:17;4.20;99.90
19522;DHT22;9905;52.126;5.596;2022-12-08T01:13:46;4.20;99.90
19522;DHT22;9905;52.126;5.596;2022-12-08T01:16:18;4.20;99.90
19522;DHT22;9905;52.126;5.596;2022-12-08T01:18:45;4.20;99.90
19522;DHT22;9905;52.126;5.596;2022-12-08T01:21:12;4.10;99.90
19522;DHT22;9905;52.126;5.596;2022-12-08T01:23:39;4.20;99.90
19522;DHT22;9905;52.126;5.596;2022-12-08T01:26:07;4.10;99.90
19522;DHT22;9905;52.126;5.596;2022-12-08T01:28:36;4.10;99.90
19522;DHT22;9905;52.126;5.596;2022-12-08T01:31:08;4.20;99.90
19522;DHT22;9905;52.126;5.596;2022-12-08T01:33:36;4.10;99.90
19522;DHT22;9905;52.126;5.596;2022-12-08T01:36:03;4.20;99.90
19522;DHT22;9905;52.126;5.596;2022-12-08T01:38:30;4.20;99.90
19522;DHT22;9905;52.126;5.596;2022-12-08T01:40:58;4.10;99.90
19522;DHT22;9905;52.126;5.596;2022-12-08T01:43:25;4.20;99.90
19522;DHT22;9905;52.126;5.596;2022-12-08T01:46:10;4.20;99.90
19522;DHT22;9905;52.126;5.596;2022-12-08T01:48:37;4.20;99.90
19522;DHT22;9905;52.126;5.596;2022-12-08T01:51:04;4.20;99.90
19522;DHT22;9905;52.126;5.596;2022-12-08T01:53:31;4.20;99.90
19522;DHT22;9905;52.126;5.596;2022-12-08T01:56:03;4.20;99.90
19522;DHT22;9905;52.126;5.596;2022-12-08T01:58:35;4.30;99.90
19522;DHT22;9905;52.126;5.596;2022-12-08T02:01:04;4.20;99.90
19522;DHT22;9905;52.126;5.596;2022-12-08T02:03:35;4.20;99.90
19522;DHT22;9905;52.126;5.596;2022-12-08T02:06:04;4.20;99.90
19522;DHT22;9905;52.126;5.596;2022-12-08T02:08:31;4.20;99.90
19522;DHT22;9905;52.126;5.596;2022-12-08T02:10:59;4.20;99.90
19522;DHT22;9905;52.126;5.596;2022-12-08T02:13:25;4.20;99.90
19522;DHT22;9905;52.126;5.596;2022-12-08T02:16:00;4.20;99.90
19522;DHT22;9905;52.126;5.596;2022-12-08T02:18:39;4.20;99.90
19522;DHT22;9905;52.126;5.596;2022-12-08T02:21:12;4.20;99.90
19522;DHT22;9905;52.126;5.596;2022-12-08T02:23:50;4.20;99.90
19522;DHT22;9905;52.126;5.596;2022-12-08T02:26:42;4.20;99.90
19522;DHT22;9905;52.126;5.596;2022-12-08T02:29:37;4.20;99.90
19522;DHT22;9905;52.126;5.596;2022-12-08T02:32:27;4.10;99.90
19522;DHT22;9905;52.126;5.596;2022-12-08T02:35:02;4.20;99.90
19522;DHT22;9905;52.126;5.596;2022-12-08T02:37:32;4.20;99.90
19522;DHT22;9905;52.126;5.596;2022-12-08T02:40:05;4.10;99.90
19522;DHT22;9905;52.126;5.596;2022-12-08T02:42:36;4.20;99.90
19522;DHT22;9905;52.126;5.596;2022-12-08T02:45:08;4.20;99.90
19522;DHT22;9905;52.126;5.596;2022-12-08T02:47:37;4.20;99.90
19522;DHT22;9905;52.126;5.596;2022-12-08T02:50:07;4.20;99.90
19522;DHT22;9905;52.126;5.596;2022-12-08T02:52:39;4.20;99.90
19522;DHT22;9905;52.126;5.596;2022-12-08T02:55:10;4.20;99.90
19522;DHT22;9905;52.126;5.596;2022-12-08T02:57:46;4.30;99.90
19522;DHT22;9905;52.126;5.596;2022-12-08T03:00:19;4.30;99.90
19522;DHT22;9905;52.126;5.596;2022-12-08T03:02:56;4.30;99.90
19522;DHT22;9905;52.126;5.596;2022-12-08T03:05:38;4.30;99.90
19522;DHT22;9905;52.126;5.596;2022-12-08T03:08:10;4.30;99.90
19522;DHT22;9905;52.126;5.596;2022-12-08T03:10:42;4.30;99.90
19522;DHT22;9905;52.126;5.596;2022-12-08T03:13:12;4.30;99.90
19522;DHT22;9905;52.126;5.596;2022-12-08T03:15:40;4.30;99.90
19522;DHT22;9905;52.126;5.596;2022-12-08T03:18:10;4.30;99.90
19522;DHT22;9905;52.126;5.596;2022-12-08T03:20:41;4.30;99.90
19522;DHT22;9905;52.126;5.596;2022-12-08T03:23:11;4.30;99.90
19522;DHT22;9905;52.126;5.596;2022-12-08T03:25:42;4.30;99.90
19522;DHT22;9905;52.126;5.596;2022-12-08T03:28:11;4.30;99.90
19522;DHT22;9905;52.126;5.596;2022-12-08T03:30:40;4.30;99.90
19522;DHT22;9905;52.126;5.596;2022-12-08T03:33:14;4.40;99.90
19522;DHT22;9905;52.126;5.596;2022-12-08T03:35:45;4.40;99.90
19522;DHT22;9905;52.126;5.596;2022-12-08T03:38:15;4.40;99.90
19522;DHT22;9905;52.126;5.596;2022-12-08T03:40:42;4.40;99.90
19522;DHT22;9905;52.126;5.596;2022-12-08T03:43:09;4.40;99.90
19522;DHT22;9905;52.126;5.596;2022-12-08T03:45:36;4.30;99.90
19522;DHT22;9905;52.126;5.596;2022-12-08T03:48:02;4.30;99.90
19522;DHT22;9905;52.126;5.596;2022-12-08T03:50:29;4.40;99.90
19522;DHT22;9905;52.126;5.596;2022-12-08T03:52:57;4.40;99.90
19522;DHT22;9905;52.126;5.596;2022-12-08T03:55:24;4.30;99.90
19522;DHT22;9905;52.126;5.596;2022-12-08T03:57:51;4.40;99.90
19522;DHT22;9905;52.126;5.596;2022-12-08T04:00:18;4.30;99.90
19522;DHT22;9905;52.126;5.596;2022-12-08T04:02:44;4.30;99.90
19522;DHT22;9905;52.126;5.596;2022-12-08T04:05:11;4.40;99.90
19522;DHT22;9905;52.126;5.596;2022-12-08T04:07:38;4.30;99.90
19522;DHT22;9905;52.126;5.596;2022-12-08T04:10:07;4.30;99.90
19522;DHT22;9905;52.126;5.596;2022-12-08T04:12:34;4.30;99.90
19522;DHT22;9905;52.126;5.596;2022-12-08T04:15:01;4.30;99.90
19522;DHT22;9905;52.126;5.596;2022-12-08T04:17:28;4.30;99.90
19522;DHT22;9905;52.126;5.596;2022-12-08T04:19:54;4.30;99.90
19522;DHT22;9905;52.126;5.596;2022-12-08T04:22:21;4.30;99.90
19522;DHT22;9905;52.126;5.596;2022-12-08T04:24:48;4.30;99.90
19522;DHT22;9905;52.126;5.596;2022-12-08T04:27:16;4.30;99.90
19522;DHT22;9905;52.126;5.596;2022-12-08T04:29:43;4.20;99.90
19522;DHT22;9905;52.126;5.596;2022-12-08T04:32:09;4.20;99.90
19522;DHT22;9905;52.126;5.596;2022-12-08T04:34:36;4.20;99.90
19522;DHT22;9905;52.126;5.596;2022-12-08T04:37:03;4.20;99.90
19522;DHT22;9905;52.126;5.596;2022-12-08T04:39:30;4.20;99.90
19522;DHT22;9905;52.126;5.596;2022-12-08T04:41:56;4.10;99.90
19522;DHT22;9905;52.126;5.596;2022-12-08T04:44:24;4.10;99.90
19522;DHT22;9905;52.126;5.596;2022-12-08T04:46:51;4.10;99.90
19522;DHT22;9905;52.126;5.596;2022-12-08T04:49:18;4.10;99.90
19522;DHT22;9905;52.126;5.596;2022-12-08T04:51:45;4.10;99.90
19522;DHT22;9905;52.126;5.596;2022-12-08T04:54:11;4.10;99.90
19522;DHT22;9905;52.126;5.596;2022-12-08T04:56:38;4.10;99.90
19522;DHT22;9905;52.126;5.596;2022-12-08T04:59:05;4.10;99.90
19522;DHT22;9905;52.126;5.596;2022-12-08T05:01:33;4.10;99.90
19522;DHT22;9905;52.126;5.596;2022-12-08T05:04:00;4.10;99.90
19522;DHT22;9905;52.126;5.596;2022-12-08T05:06:26;4.10;99.90
19522;DHT22;9905;52.126;5.596;2022-12-08T05:08:53;4.10;99.90
19522;DHT22;9905;52.126;5.596;2022-12-08T05:11:20;4.10;99.90
19522;DHT22;9905;52.126;5.596;2022-12-08T05:13:47;4.10;99.90
19522;DHT22;9905;52.126;5.596;2022-12-08T05:16:14;4.10;99.90
19522;DHT22;9905;52.126;5.596;2022-12-08T05:18:42;4.20;99.90
19522;DHT22;9905;52.126;5.596;2022-12-08T05:21:10;4.20;99.90
19522;DHT22;9905;52.126;5.596;2022-12-08T05:23:37;4.20;99.90
19522;DHT22;9905;52.126;5.596;2022-12-08T05:26:04;4.10;99.90
19522;DHT22;9905;52.126;5.596;2022-12-08T05:28:30;4.10;99.90
19522;DHT22;9905;52.126;5.596;2022-12-08T05:30:57;4.10;99.90
19522;DHT22;9905;52.126;5.596;2022-12-08T05:33:24;4.10;99.90
19522;DHT22;9905;52.126;5.596;2022-12-08T05:35:52;4.20;99.90
19522;DHT22;9905;52.126;5.596;2022-12-08T05:38:19;4.20;99.90
19522;DHT22;9905;52.126;5.596;2022-12-08T05:40:46;4.10;99.90
19522;DHT22;9905;52.126;5.596;2022-12-08T05:43:12;4.10;99.90
19522;DHT22;9905;52.126;5.596;2022-12-08T05:45:39;4.10;99.90
19522;DHT22;9905;52.126;5.596;2022-12-08T05:48:06;4.10;99.90
19522;DHT22;9905;52.126;5.596;2022-12-08T05:50:33;4.10;99.90
19522;DHT22;9905;52.126;5.596;2022-12-08T05:53:01;4.10;99.90
19522;DHT22;9905;52.126;5.596;2022-12-08T05:55:27;4.10;99.90
19522;DHT22;9905;52.126;5.596;2022-12-08T05:57:54;4.10;99.90
19522;DHT22;9905;52.126;5.596;2022-12-08T06:00:21;4.10;99.90
19522;DHT22;9905;52.126;5.596;2022-12-08T06:02:48;4.00;99.90
19522;DHT22;9905;52.126;5.596;2022-12-08T06:05:15;4.00;99.90
19522;DHT22;9905;52.126;5.596;2022-12-08T06:07:41;4.00;99.90
19522;DHT22;9905;52.126;5.596;2022-12-08T06:10:10;3.90;99.90
19522;DHT22;9905;52.126;5.596;2022-12-08T06:12:37;3.90;99.90
19522;DHT22;9905;52.126;5.596;2022-12-08T06:15:05;3.90;99.90
19522;DHT22;9905;52.126;5.596;2022-12-08T06:17:32;3.90;99.90
19522;DHT22;9905;52.126;5.596;2022-12-08T06:19:59;3.90;99.90
19522;DHT22;9905;52.126;5.596;2022-12-08T06:22:25;4.00;99.90
19522;DHT22;9905;52.126;5.596;2022-12-08T06:24:52;3.90;99.90
19522;DHT22;9905;52.126;5.596;2022-12-08T06:27:20;3.90;99.90
19522;DHT22;9905;52.126;5.596;2022-12-08T06:29:47;3.90;99.90
19522;DHT22;9905;52.126;5.596;2022-12-08T06:32:14;4.00;99.90
19522;DHT22;9905;52.126;5.596;2022-12-08T06:34:40;4.00;99.90
19522;DHT22;9905;52.126;5.596;2022-12-08T06:37:07;4.00;99.90
19522;DHT22;9905;52.126;5.596;2022-12-08T06:39:34;4.00;99.90
19522;DHT22;9905;52.126;5.596;2022-12-08T06:42:00;4.00;99.90
19522;DHT22;9905;52.126;5.596;2022-12-08T06:44:46;4.00;99.90
19522;DHT22;9905;52.126;5.596;2022-12-08T06:47:13;4.00;99.90
19522;DHT22;9905;52.126;5.596;2022-12-08T06:49:40;4.00;99.90
19522;DHT22;9905;52.126;5.596;2022-12-08T06:52:07;4.00;99.90
19522;DHT22;9905;52.126;5.596;2022-12-08T06:54:33;4.00;99.90
19522;DHT22;9905;52.126;5.596;2022-12-08T06:57:00;3.90;99.90
19522;DHT22;9905;52.126;5.596;2022-12-08T06:59:27;3.90;99.90
19522;DHT22;9905;52.126;5.596;2022-12-08T07:01:55;3.90;99.90
19522;DHT22;9905;52.126;5.596;2022-12-08T07:04:22;3.90;99.90
19522;DHT22;9905;52.126;5.596;2022-12-08T07:06:49;4.00;99.90
19522;DHT22;9905;52.126;5.596;2022-12-08T07:09:16;3.90;99.90
19522;DHT22;9905;52.126;5.596;2022-12-08T07:11:43;3.90;99.90
19522;DHT22;9905;52.126;5.596;2022-12-08T07:14:09;3.90;99.90
19522;DHT22;9905;52.126;5.596;2022-12-08T07:16:36;3.90;99.90
19522;DHT22;9905;52.126;5.596;2022-12-08T07:19:05;3.90;99.90
19522;DHT22;9905;52.126;5.596;2022-12-08T07:21:32;3.90;99.90
19522;DHT22;9905;52.126;5.596;2022-12-08T07:23:58;3.90;99.90
19522;DHT22;9905;52.126;5.596;2022-12-08T07:26:26;3.90;99.90
19522;DHT22;9905;52.126;5.596;2022-12-08T07:28:53;3.90;99.90
19522;DHT22;9905;52.126;5.596;2022-12-08T07:31:21;3.90;99.90
19522;DHT22;9905;52.126;5.596;2022-12-08T07:33:48;3.80;99.90
19522;DHT22;9905;52.126;5.596;2022-12-08T07:36:17;3.80;99.90
19522;DHT22;9905;52.126;5.596;2022-12-08T07:38:44;3.80;99.90
19522;DHT22;9905;52.126;5.596;2022-12-08T07:41:11;3.80;99.90
19522;DHT22;9905;52.126;5.596;2022-12-08T07:43:39;3.80;99.90
19522;DHT22;9905;52.126;5.596;2022-12-08T07:46:06;3.80;99.90
19522;DHT22;9905;52.126;5.596;2022-12-08T07:48:33;3.80;99.90
19522;DHT22;9905;52.126;5.596;2022-12-08T07:51:00;3.80;99.90
19522;DHT22;9905;52.126;5.596;2022-12-08T07:53:29;3.80;99.90
19522;DHT22;9905;52.126;5.596;2022-12-08T07:55:56;3.80;99.90
19522;DHT22;9905;52.126;5.596;2022-12-08T07:58:23;3.80;99.90
19522;DHT22;9905;52.126;5.596;2022-12-08T08:00:50;3.70;99.90
19522;DHT22;9905;52.126;5.596;2022-12-08T08:03:16;3.70;99.90
19522;DHT22;9905;52.126;5.596;2022-12-08T08:05:43;3.70;99.90
19522;DHT22;9905;52.126;5.596;2022-12-08T08:08:12;3.70;99.90
19522;DHT22;9905;52.126;5.596;2022-12-08T08:10:40;3.70;99.90
19522;DHT22;9905;52.126;5.596;2022-12-08T08:13:07;3.70;99.90
19522;DHT22;9905;52.126;5.596;2022-12-08T08:15:34;3.70;99.90
19522;DHT22;9905;52.126;5.596;2022-12-08T08:18:01;3.70;99.90
19522;DHT22;9905;52.126;5.596;2022-12-08T08:20:27;3.70;99.90
19522;DHT22;9905;52.126;5.596;2022-12-08T08:22:54;3.60;99.90
19522;DHT22;9905;52.126;5.596;2022-12-08T08:25:21;3.60;99.90
19522;DHT22;9905;52.126;5.596;2022-12-08T08:27:49;3.60;99.90
19522;DHT22;9905;52.126;5.596;2022-12-08T08:30:16;3.60;99.90
19522;DHT22;9905;52.126;5.596;2022-12-08T08:32:43;3.60;99.90
19522;DHT22;9905;52.126;5.596;2022-12-08T08:35:10;3.60;99.90
19522;DHT22;9905;52.126;5.596;2022-12-08T08:37:37;3.70;99.90
19522;DHT22;9905;52.126;5.596;2022-12-08T08:40:05;3.60;99.90
19522;DHT22;9905;52.126;5.596;2022-12-08T08:42:31;3.60;99.90
19522;DHT22;9905;52.126;5.596;2022-12-08T08:44:59;3.60;99.90
19522;DHT22;9905;52.126;5.596;2022-12-08T08:47:26;3.60;99.90
19522;DHT22;9905;52.126;5.596;2022-12-08T08:49:53;3.60;99.90
19522;DHT22;9905;52.126;5.596;2022-12-08T08:52:20;3.70;99.90
19522;DHT22;9905;52.126;5.596;2022-12-08T08:54:46;3.60;99.90
19522;DHT22;9905;52.126;5.596;2022-12-08T08:57:13;3.70;99.90
19522;DHT22;9905;52.126;5.596;2022-12-08T08:59:40;3.70;99.90
19522;DHT22;9905;52.126;5.596;2022-12-08T09:02:14;3.70;99.90
19522;DHT22;9905;52.126;5.596;2022-12-08T09:04:42;3.70;99.90
19522;DHT22;9905;52.126;5.596;2022-12-08T09:07:08;3.70;99.90
19522;DHT22;9905;52.126;5.596;2022-12-08T09:09:35;3.70;99.90
19522;DHT22;9905;52.126;5.596;2022-12-08T09:12:02;3.70;99.90
19522;DHT22;9905;52.126;5.596;2022-12-08T09:14:29;3.70;99.90
19522;DHT22;9905;52.126;5.596;2022-12-08T09:16:56;3.70;99.90
19522;DHT22;9905;52.126;5.596;2022-12-08T09:19:24;3.70;99.90
19522;DHT22;9905;52.126;5.596;2022-12-08T09:21:51;3.70;99.90
19522;DHT22;9905;52.126;5.596;2022-12-08T09:24:18;3.80;99.90
19522;DHT22;9905;52.126;5.596;2022-12-08T09:26:44;3.80;99.90
19522;DHT22;9905;52.126;5.596;2022-12-08T09:29:11;3.80;99.90
19522;DHT22;9905;52.126;5.596;2022-12-08T09:31:39;3.90;99.90
19522;DHT22;9905;52.126;5.596;2022-12-08T09:34:06;3.90;99.90
19522;DHT22;9905;52.126;5.596;2022-12-08T09:36:34;3.90;99.90
19522;DHT22;9905;52.126;5.596;2022-12-08T09:39:01;3.90;99.90
19522;DHT22;9905;52.126;5.596;2022-12-08T09:41:31;3.90;99.90
19522;DHT22;9905;52.126;5.596;2022-12-08T09:44:06;4.00;99.90
19522;DHT22;9905;52.126;5.596;2022-12-08T09:46:36;3.90;99.90
19522;DHT22;9905;52.126;5.596;2022-12-08T09:49:05;3.90;99.90
19522;DHT22;9905;52.126;5.596;2022-12-08T09:51:39;3.90;99.90
19522;DHT22;9905;52.126;5.596;2022-12-08T09:54:10;3.90;99.90
19522;DHT22;9905;52.126;5.596;2022-12-08T09:56:40;3.90;99.90
19522;DHT22;9905;52.126;5.596;2022-12-08T09:59:19;3.90;99.90
19522;DHT22;9905;52.126;5.596;2022-12-08T10:01:47;4.00;99.90
19522;DHT22;9905;52.126;5.596;2022-12-08T10:04:21;4.00;99.90
19522;DHT22;9905;52.126;5.596;2022-12-08T10:06:58;4.00;99.90
19522;DHT22;9905;52.126;5.596;2022-12-08T10:09:34;3.90;99.90
19522;DHT22;9905;52.126;5.596;2022-12-08T10:12:06;4.00;99.90
19522;DHT22;9905;52.126;5.596;2022-12-08T10:14:40;4.00;99.90
19522;DHT22;9905;52.126;5.596;2022-12-08T10:17:14;4.00;99.90
19522;DHT22;9905;52.126;5.596;2022-12-08T10:19:43;4.00;99.90
19522;DHT22;9905;52.126;5.596;2022-12-08T10:22:16;4.00;99.90
19522;DHT22;9905;52.126;5.596;2022-12-08T10:24:51;4.00;99.90
19522;DHT22;9905;52.126;5.596;2022-12-08T10:27:19;4.00;99.90
19522;DHT22;9905;52.126;5.596;2022-12-08T10:29:46;4.00;99.90
19522;DHT22;9905;52.126;5.596;2022-12-08T10:32:16;4.00;99.90
19522;DHT22;9905;52.126;5.596;2022-12-08T10:35:02;4.10;99.90
19522;DHT22;9905;52.126;5.596;2022-12-08T10:37:31;4.10;99.90
19522;DHT22;9905;52.126;5.596;2022-12-08T10:40:00;4.10;99.90
19522;DHT22;9905;52.126;5.596;2022-12-08T10:42:34;4.10;99.90
19522;DHT22;9905;52.126;5.596;2022-12-08T10:45:17;4.10;99.90
19522;DHT22;9905;52.126;5.596;2022-12-08T10:47:54;4.10;99.90
19522;DHT22;9905;52.126;5.596;2022-12-08T10:50:26;4.10;99.90
19522;DHT22;9905;52.126;5.596;2022-12-08T10:52:57;4.10;99.90
19522;DHT22;9905;52.126;5.596;2022-12-08T10:55:25;4.10;99.90
19522;DHT22;9905;52.126;5.596;2022-12-08T10:57:51;4.10;99.90
19522;DHT22;9905;52.126;5.596;2022-12-08T11:00:21;4.00;99.90
19522;DHT22;9905;52.126;5.596;2022-12-08T11:02:55;4.00;99.90
19522;DHT22;9905;52.126;5.596;2022-12-08T11:05:26;4.00;99.90
19522;DHT22;9905;52.126;5.596;2022-12-08T11:07:55;4.10;99.90
19522;DHT22;9905;52.126;5.596;2022-12-08T11:10:30;4.10;99.90
19522;DHT22;9905;52.126;5.596;2022-12-08T11:13:00;4.10;99.90
19522;DHT22;9905;52.126;5.596;2022-12-08T11:15:32;4.10;99.90
19522;DHT22;9905;52.126;5.596;2022-12-08T11:18:06;4.20;99.90
19522;DHT22;9905;52.126;5.596;2022-12-08T11:20:38;4.10;99.90
19522;DHT22;9905;52.126;5.596;2022-12-08T11:23:18;4.10;99.90
19522;DHT22;9905;52.126;5.596;2022-12-08T11:25:46;4.10;99.90
19522;DHT22;9905;52.126;5.596;2022-12-08T11:28:21;4.20;99.90
19522;DHT22;9905;52.126;5.596;2022-12-08T11:30:53;4.20;99.90
19522;DHT22;9905;52.126;5.596;2022-12-08T11:33:24;4.10;99.90
19522;DHT22;9905;52.126;5.596;2022-12-08T11:35:55;4.20;99.90
19522;DHT22;9905;52.126;5.596;2022-12-08T11:38:26;4.20;99.90
19522;DHT22;9905;52.126;5.596;2022-12-08T11:40:56;4.10;99.90
19522;DHT22;9905;52.126;5.596;2022-12-08T11:43:28;4.10;99.90
19522;DHT22;9905;52.126;5.596;2022-12-08T11:45:59;4.10;99.90
19522;DHT22;9905;52.126;5.596;2022-12-08T11:48:32;4.10;99.90
19522;DHT22;9905;52.126;5.596;2022-12-08T11:51:06;4.10;99.90
19522;DHT22;9905;52.126;5.596;2022-12-08T11:53:40;4.10;99.90
19522;DHT22;9905;52.126;5.596;2022-12-08T11:56:14;4.10;99.90
19522;DHT22;9905;52.126;5.596;2022-12-08T11:58:44;4.10;99.90
19522;DHT22;9905;52.126;5.596;2022-12-08T12:01:17;4.10;99.90
19522;DHT22;9905;52.126;5.596;2022-12-08T12:03:49;4.20;99.90
19522;DHT22;9905;52.126;5.596;2022-12-08T12:06:28;4.20;99.90
19522;DHT22;9905;52.126;5.596;2022-12-08T12:09:08;4.20;99.90
19522;DHT22;9905;52.126;5.596;2022-12-08T12:11:43;4.20;99.90
19522;DHT22;9905;52.126;5.596;2022-12-08T12:14:45;4.30;99.90
19522;DHT22;9905;52.126;5.596;2022-12-08T12:17:28;4.30;99.90
19522;DHT22;9905;52.126;5.596;2022-12-08T12:20:02;4.20;99.90
19522;DHT22;9905;52.126;5.596;2022-12-08T12:22:34;4.20;99.90
19522;DHT22;9905;52.126;5.596;2022-12-08T12:25:02;4.30;99.90
19522;DHT22;9905;52.126;5.596;2022-12-08T12:27:35;4.20;99.90
19522;DHT22;9905;52.126;5.596;2022-12-08T12:30:07;4.30;99.90
19522;DHT22;9905;52.126;5.596;2022-12-08T12:32:46;4.30;99.90
19522;DHT22;9905;52.126;5.596;2022-12-08T12:35:15;4.40;99.90
19522;DHT22;9905;52.126;5.596;2022-12-08T12:37:44;4.40;99.90
19522;DHT22;9905;52.126;5.596;2022-12-08T12:40:17;4.40;99.90
19522;DHT22;9905;52.126;5.596;2022-12-08T12:42:47;4.30;99.90
19522;DHT22;9905;52.126;5.596;2022-12-08T12:45:35;4.40;99.90
19522;DHT22;9905;52.126;5.596;2022-12-08T12:48:23;4.40;99.90
19522;DHT22;9905;52.126;5.596;2022-12-08T12:50:51;4.30;99.90
19522;DHT22;9905;52.126;5.596;2022-12-08T12:53:45;4.40;99.90
19522;DHT22;9905;52.126;5.596;2022-12-08T12:56:49;4.40;99.90
19522;DHT22;9905;52.126;5.596;2022-12-08T12:59:42;4.40;99.90
19522;DHT22;9905;52.126;5.596;2022-12-08T13:02:21;4.40;99.90
19522;DHT22;9905;52.126;5.596;2022-12-08T13:04:55;4.40;99.90
19522;DHT22;9905;52.126;5.596;2022-12-08T13:07:24;4.30;99.90
19522;DHT22;9905;52.126;5.596;2022-12-08T13:09:57;4.30;99.90
19522;DHT22;9905;52.126;5.596;2022-12-08T13:12:27;4.30;99.90
19522;DHT22;9905;52.126;5.596;2022-12-08T13:15:00;4.50;99.90
19522;DHT22;9905;52.126;5.596;2022-12-08T13:17:29;4.40;99.90
19522;DHT22;9905;52.126;5.596;2022-12-08T13:19:58;4.50;99.90
19522;DHT22;9905;52.126;5.596;2022-12-08T13:22:49;4.50;99.90
19522;DHT22;9905;52.126;5.596;2022-12-08T13:25:51;4.60;99.90
19522;DHT22;9905;52.126;5.596;2022-12-08T13:28:22;4.60;99.90
19522;DHT22;9905;52.126;5.596;2022-12-08T13:30:50;4.50;99.90
19522;DHT22;9905;52.126;5.596;2022-12-08T13:33:23;4.50;99.90
19522;DHT22;9905;52.126;5.596;2022-12-08T13:35:59;4.50;99.90
19522;DHT22;9905;52.126;5.596;2022-12-08T13:38:29;4.40;99.90
19522;DHT22;9905;52.126;5.596;2022-12-08T13:41:00;4.40;99.90
19522;DHT22;9905;52.126;5.596;2022-12-08T13:43:34;4.40;99.90
19522;DHT22;9905;52.126;5.596;2022-12-08T13:46:05;4.30;99.90
19522;DHT22;9905;52.126;5.596;2022-12-08T13:48:43;4.30;99.90
19522;DHT22;9905;52.126;5.596;2022-12-08T13:51:14;4.30;99.90
19522;DHT22;9905;52.126;5.596;2022-12-08T13:53:46;4.30;99.90
19522;DHT22;9905;52.126;5.596;2022-12-08T13:56:17;4.20;99.90
19522;DHT22;9905;52.126;5.596;2022-12-08T13:58:46;4.10;99.90
19522;DHT22;9905;52.126;5.596;2022-12-08T14:01:14;4.10;99.90
19522;DHT22;9905;52.126;5.596;2022-12-08T14:03:50;4.20;99.90
19522;DHT22;9905;52.126;5.596;2022-12-08T14:06:19;4.10;99.90
19522;DHT22;9905;52.126;5.596;2022-12-08T14:08:53;4.10;99.90
19522;DHT22;9905;52.126;5.596;2022-12-08T14:11:25;4.10;99.90
19522;DHT22;9905;52.126;5.596;2022-12-08T14:14:05;4.10;99.90
19522;DHT22;9905;52.126;5.596;2022-12-08T14:16:38;4.10;99.90
19522;DHT22;9905;52.126;5.596;2022-12-08T14:19:13;4.10;99.90
19522;DHT22;9905;52.126;5.596;2022-12-08T14:21:41;4.00;99.90
19522;DHT22;9905;52.126;5.596;2022-12-08T14:24:11;4.00;99.90
19522;DHT22;9905;52.126;5.596;2022-12-08T14:26:38;4.00;99.90
19522;DHT22;9905;52.126;5.596;2022-12-08T14:29:07;4.00;99.90
19522;DHT22;9905;52.126;5.596;2022-12-08T14:31:34;4.00;99.90
19522;DHT22;9905;52.126;5.596;2022-12-08T14:34:01;4.00;99.90
19522;DHT22;9905;52.126;5.596;2022-12-08T14:36:28;4.00;99.90
19522;DHT22;9905;52.126;5.596;2022-12-08T14:38:57;4.00;99.90
19522;DHT22;9905;52.126;5.596;2022-12-08T14:41:25;4.00;99.90
19522;DHT22;9905;52.126;5.596;2022-12-08T14:44:00;4.00;99.90
19522;DHT22;9905;52.126;5.596;2022-12-08T14:46:28;3.90;99.90
19522;DHT22;9905;52.126;5.596;2022-12-08T14:48:55;4.00;99.90
19522;DHT22;9905;52.126;5.596;2022-12-08T14:51:27;4.00;99.90
19522;DHT22;9905;52.126;5.596;2022-12-08T14:53:57;4.00;99.90
19522;DHT22;9905;52.126;5.596;2022-12-08T14:56:30;4.00;99.90
19522;DHT22;9905;52.126;5.596;2022-12-08T14:59:04;4.00;99.90
19522;DHT22;9905;52.126;5.596;2022-12-08T15:01:33;3.90;99.90
19522;DHT22;9905;52.126;5.596;2022-12-08T15:04:05;3.90;99.90
19522;DHT22;9905;52.126;5.596;2022-12-08T15:06:33;3.90;99.90
19522;DHT22;9905;52.126;5.596;2022-12-08T15:09:14;3.90;99.90
19522;DHT22;9905;52.126;5.596;2022-12-08T15:11:41;3.90;99.90
19522;DHT22;9905;52.126;5.596;2022-12-08T15:14:26;3.90;99.90
19522;DHT22;9905;52.126;5.596;2022-12-08T15:16:54;4.00;99.90
19522;DHT22;9905;52.126;5.596;2022-12-08T15:19:30;3.90;99.90
19522;DHT22;9905;52.126;5.596;2022-12-08T15:22:08;3.90;99.90
19522;DHT22;9905;52.126;5.596;2022-12-08T15:24:37;3.80;99.90
19522;DHT22;9905;52.126;5.596;2022-12-08T15:27:04;3.70;99.90
19522;DHT22;9905;52.126;5.596;2022-12-08T15:29:30;3.70;99.90
19522;DHT22;9905;52.126;5.596;2022-12-08T15:31:59;3.70;99.90
19522;DHT22;9905;52.126;5.596;2022-12-08T15:34:27;3.70;99.90
19522;DHT22;9905;52.126;5.596;2022-12-08T15:36:54;3.70;99.90
19522;DHT22;9905;52.126;5.596;2022-12-08T15:39:29;3.80;99.90
19522;DHT22;9905;52.126;5.596;2022-12-08T15:41:57;3.80;99.90
19522;DHT22;9905;52.126;5.596;2022-12-08T15:44:24;3.70;99.90
19522;DHT22;9905;52.126;5.596;2022-12-08T15:46:51;3.70;99.90
19522;DHT22;9905;52.126;5.596;2022-12-08T15:49:21;3.60;99.90
19522;DHT22;9905;52.126;5.596;2022-12-08T15:51:49;3.60;99.90
19522;DHT22;9905;52.126;5.596;2022-12-08T15:54:16;3.70;99.90
19522;DHT22;9905;52.126;5.596;2022-12-08T15:56:46;3.60;99.90
19522;DHT22;9905;52.126;5.596;2022-12-08T15:59:16;3.70;99.90
19522;DHT22;9905;52.126;5.596;2022-12-08T16:01:43;3.70;99.90
19522;DHT22;9905;52.126;5.596;2022-12-08T16:04:13;3.80;99.90
19522;DHT22;9905;52.126;5.596;2022-12-08T16:06:43;3.80;99.90
19522;DHT22;9905;52.126;5.596;2022-12-08T16:09:19;3.80;99.90
19522;DHT22;9905;52.126;5.596;2022-12-08T16:11:46;3.80;99.90
19522;DHT22;9905;52.126;5.596;2022-12-08T16:14:30;3.80;99.90
19522;DHT22;9905;52.126;5.596;2022-12-08T16:16:57;3.70;99.90
19522;DHT22;9905;52.126;5.596;2022-12-08T16:19:24;3.70;99.90
19522;DHT22;9905;52.126;5.596;2022-12-08T16:21:52;3.70;99.90